Station Historical Data
Daily Summary for February 9, 2012 Units:  Metric    English   Both
« Previous Day
Next Day »
Daily Weekly Monthly Yearly Custom
  High: Low: Average:
Temperature: 5.8 °C -1.6 °C 2.1 °C
Dew Point: -0.4 °C -2.9 °C -1.6 °C
Humidity: 92% 62% 77%
Wind Speed: 17.7km/h 0km/h 4.8km/h
Wind Gust: 20.9km/h - -
Wind- - SSE
Pressure: 1028 hPa 1023.6 hPa -
Precipitation: 0 mm    
Historical Graphs
 
 
Tabular Data for February 9, 2012
Time Temperature Dew Point Pressure Wind Wind Speed Wind Gust Humidity Rainfall Rate (Hourly) Conditions
00:00 2.4 °C -0.6 °C 1027 hPa NNE 12.9 km/h 12.9 km/h 81% 0 mm
00:06 2.4 °C -0.6 °C 1027 hPa North 4.8 km/h 11.3 km/h 81% 0 mm
00:11 2.4 °C -0.6 °C 1027 hPa NW 6.4 km/h 9.7 km/h 81% 0 mm
00:16 2.4 °C -0.7 °C 1027 hPa NNE 6.4 km/h 9.7 km/h 80% 0 mm
00:21 2.4 °C -0.7 °C 1027 hPa North 4.8 km/h 9.7 km/h 80% 0 mm
00:26 2.4 °C -0.7 °C 1026.6 hPa North 4.8 km/h 9.7 km/h 80% 0 mm
00:31 2.4 °C -0.7 °C 1026.6 hPa North 8 km/h 9.7 km/h 80% 0 mm
00:36 2.3 °C -0.8 °C 1026.6 hPa NNW 4.8 km/h 11.3 km/h 80% 0 mm
00:41 2.3 °C -0.8 °C 1026.6 hPa NNW 6.4 km/h 9.7 km/h 80% 0 mm
00:46 2.1 °C -1.3 °C 1026.6 hPa NNW 3.2 km/h 11.3 km/h 78% 0 mm
00:51 1.8 °C -1.6 °C 1026.6 hPa North 3.2 km/h 3.2 km/h 78% 0 mm
00:56 1.7 °C -1.7 °C 1026.6 hPa NNE 6.4 km/h 6.4 km/h 78% 0 mm
01:01 1.6 °C -1.6 °C 1027 hPa NNW 3.2 km/h 6.4 km/h 79% 0 mm
01:06 1.5 °C -1.7 °C 1027 hPa North 1.6 km/h 3.2 km/h 79% 0 mm
01:11 1.4 °C -1.8 °C 1027 hPa NNW 1.6 km/h 4.8 km/h 79% 0 mm
01:16 1.4 °C -1.7 °C 1027 hPa NNW 4.8 km/h 6.4 km/h 80% 0 mm
01:21 1.4 °C -1.6 °C 1027 hPa NNW 4.8 km/h 4.8 km/h 80% 0 mm
01:26 1.4 °C -1.4 °C 1027.3 hPa NW 3.2 km/h 6.4 km/h 81% 0 mm
01:31 1.5 °C -1.4 °C 1027.3 hPa NNW 4.8 km/h 8 km/h 81% 0 mm
01:36 1.5 °C -1.4 °C 1027.3 hPa NNW 3.2 km/h 6.4 km/h 81% 0 mm
01:41 1.4 °C -1.5 °C 1027.3 hPa North 1.6 km/h 4.8 km/h 81% 0 mm
01:46 1.3 °C -1.4 °C 1027.3 hPa North 3.2 km/h 3.2 km/h 82% 0 mm
01:51 1.3 °C -1.4 °C 1027 hPa North 1.6 km/h 3.2 km/h 82% 0 mm
01:56 1.2 °C -1.3 °C 1027 hPa North 1.6 km/h 4.8 km/h 83% 0 mm
02:01 1.1 °C -1.4 °C 1027.3 hPa NW 1.6 km/h 1.6 km/h 83% 0 mm
02:06 1.1 °C -1.4 °C 1027.3 hPa NNW 3.2 km/h 3.2 km/h 83% 0 mm
02:11 1.2 °C -1.3 °C 1027.3 hPa NW 1.6 km/h 4.8 km/h 83% 0 mm
02:16 1.3 °C -1.3 °C 1027.3 hPa NNW 3.2 km/h 6.4 km/h 83% 0 mm
02:21 1.3 °C -1.2 °C 1027.3 hPa NNW 3.2 km/h 4.8 km/h 83% 0 mm
02:26 1.3 °C -1.2 °C 1027.3 hPa NNW 3.2 km/h 6.4 km/h 83% 0 mm
02:31 1.4 °C -1.2 °C 1027.3 hPa North 6.4 km/h 6.4 km/h 83% 0 mm
02:36 1.4 °C -1.2 °C 1027.3 hPa NNW 4.8 km/h 6.4 km/h 83% 0 mm
02:41 1.4 °C -1.2 °C 1027.3 hPa NNW 6.4 km/h 6.4 km/h 83% 0 mm
02:46 1.4 °C -1.2 °C 1027.3 hPa NW 4.8 km/h 8 km/h 83% 0 mm
02:51 1.4 °C -1.3 °C 1027.3 hPa NNW 3.2 km/h 8 km/h 82% 0 mm
02:56 1.4 °C -1.3 °C 1027.3 hPa NW 4.8 km/h 8 km/h 82% 0 mm
03:01 1.3 °C -1.2 °C 1027.3 hPa NNW 6.4 km/h 8 km/h 83% 0 mm
03:06 1.3 °C -1.2 °C 1027 hPa NW 3.2 km/h 8 km/h 83% 0 mm
03:11 1.3 °C -1.3 °C 1027 hPa NW 3.2 km/h 9.7 km/h 83% 0 mm
03:16 1.3 °C -1.3 °C 1027 hPa NNW 3.2 km/h 9.7 km/h 83% 0 mm
03:21 1.2 °C -1.2 °C 1027 hPa North 4.8 km/h 8 km/h 84% 0 mm
03:26 1.2 °C -1.2 °C 1027 hPa NNW 3.2 km/h 8 km/h 84% 0 mm
03:31 1.1 °C -1.3 °C 1027 hPa NNW 1.6 km/h 4.8 km/h 84% 0 mm
03:36 1.1 °C -1.3 °C 1027 hPa North 8 km/h 9.7 km/h 84% 0 mm
03:41 1.1 °C -1.3 °C 1027 hPa NNW 3.2 km/h 6.4 km/h 84% 0 mm
03:46 1.1 °C -1.3 °C 1027 hPa NW 4.8 km/h 12.9 km/h 84% 0 mm
03:47 1.1 °C -1.3 °C 1027 hPa North 8 km/h 12.9 km/h 84% 0 mm
03:52 1.1 °C -1.5 °C 1027 hPa NNW 8 km/h 9.7 km/h 83% 0 mm
03:57 1 °C -1.6 °C 1027 hPa North 8 km/h 11.3 km/h 83% 0 mm
04:02 0.8 °C -1.7 °C 1027 hPa North 6.4 km/h 8 km/h 83% 0 mm
04:07 0.7 °C -1.9 °C 1027.3 hPa NNW 8 km/h 11.3 km/h 83% 0 mm
04:12 0.6 °C -2 °C 1027.3 hPa North 4.8 km/h 11.3 km/h 83% 0 mm
04:17 0.4 °C -2 °C 1027.3 hPa NNW 3.2 km/h 6.4 km/h 84% 0 mm
04:22 0.2 °C -2.2 °C 1027.3 hPa NNW 3.2 km/h 3.2 km/h 84% 0 mm
04:27 0.1 °C -2.3 °C 1027.3 hPa NNW 4.8 km/h 6.4 km/h 84% 0 mm
04:32 0 °C -2.2 °C 1027.3 hPa NNW 3.2 km/h 4.8 km/h 85% 0 mm
04:37 -0.1 °C -2.3 °C 1027.3 hPa NNW 3.2 km/h 4.8 km/h 85% 0 mm
04:42 -0.1 °C -2.3 °C 1027.3 hPa NW 1.6 km/h 4.8 km/h 85% 0 mm
04:48 -0.2 °C -2.4 °C 1027.3 hPa NNW 3.2 km/h 4.8 km/h 85% 0 mm
04:53 -0.2 °C -2.3 °C 1027 hPa North 4.8 km/h 4.8 km/h 86% 0 mm
04:58 -0.3 °C -2.4 °C 1027 hPa North 8 km/h 8 km/h 86% 0 mm
05:03 -0.4 °C -2.5 °C 1027 hPa NNW 4.8 km/h 6.4 km/h 86% 0 mm
05:08 -0.6 °C -2.6 °C 1027 hPa NNW 3.2 km/h 6.4 km/h 86% 0 mm
05:13 -0.6 °C -2.5 °C 1027 hPa NNW 1.6 km/h 6.4 km/h 87% 0 mm
05:18 -0.7 °C -2.6 °C 1027 hPa NNW 4.8 km/h 6.4 km/h 87% 0 mm
05:23 -0.7 °C -2.6 °C 1027 hPa NNW 6.4 km/h 8 km/h 87% 0 mm
05:28 -0.7 °C -2.4 °C 1027 hPa NNW 4.8 km/h 4.8 km/h 88% 0 mm
05:33 -0.7 °C -2.4 °C 1026.6 hPa NNW 9.7 km/h 9.7 km/h 88% 0 mm
05:38 -0.6 °C -2.3 °C 1026.6 hPa NNW 6.4 km/h 9.7 km/h 88% 0 mm
05:43 -0.6 °C -2.3 °C 1026.6 hPa NNE 3.2 km/h 6.4 km/h 88% 0 mm
05:48 -0.5 °C -2.2 °C 1026.6 hPa North 6.4 km/h 9.7 km/h 88% 0 mm
05:53 -0.4 °C -2.2 °C 1026.6 hPa NNE 6.4 km/h 9.7 km/h 88% 0 mm
05:58 -0.3 °C -2.1 °C 1027 hPa NNE 8 km/h 11.3 km/h 88% 0 mm
06:03 -0.3 °C -2.1 °C 1027 hPa North 6.4 km/h 9.7 km/h 88% 0 mm
06:08 -0.2 °C -1.9 °C 1027 hPa NNE 6.4 km/h 9.7 km/h 88% 0 mm
06:13 -0.2 °C -1.9 °C 1027 hPa NNE 6.4 km/h 11.3 km/h 88% 0 mm
06:18 -0.1 °C -1.8 °C 1027 hPa NNW 6.4 km/h 9.7 km/h 88% 0 mm
06:23 -0.1 °C -1.8 °C 1027 hPa NNE 6.4 km/h 11.3 km/h 88% 0 mm
06:28 -0.1 °C -1.8 °C 1027 hPa NNE 4.8 km/h 9.7 km/h 88% 0 mm
06:33 0 °C -1.9 °C 1027 hPa North 4.8 km/h 6.4 km/h 87% 0 mm
06:38 0 °C -1.9 °C 1027 hPa NNE 4.8 km/h 6.4 km/h 87% 0 mm
06:43 0 °C -1.9 °C 1027 hPa NW 3.2 km/h 8 km/h 87% 0 mm
06:48 0 °C -1.9 °C 1027 hPa NNW 8 km/h 8 km/h 87% 0 mm
06:53 -0.1 °C -2 °C 1027 hPa NNW 6.4 km/h 6.4 km/h 87% 0 mm
06:58 -0.2 °C -2.1 °C 1027 hPa NNE 3.2 km/h 6.4 km/h 87% 0 mm
07:03 -0.4 °C -2.3 °C 1027 hPa North 4.8 km/h 4.8 km/h 87% 0 mm
07:08 -0.6 °C -2.3 °C 1027 hPa North 3.2 km/h 6.4 km/h 88% 0 mm
07:13 -0.7 °C -2.4 °C 1027 hPa North 3.2 km/h 6.4 km/h 88% 0 mm
07:18 -0.8 °C -2.6 °C 1027 hPa North 3.2 km/h 8 km/h 88% 0 mm
07:23 -0.9 °C -2.5 °C 1027 hPa North 3.2 km/h 4.8 km/h 89% 0 mm
07:28 -1.1 °C -2.6 °C 1027.3 hPa North 1.6 km/h 3.2 km/h 89% 0 mm
07:33 -1.2 °C -2.6 °C 1027.3 hPa NNW 3.2 km/h 3.2 km/h 90% 0 mm
07:38 -1.2 °C -2.7 °C 1027.3 hPa North 4.8 km/h 4.8 km/h 90% 0 mm
07:43 -1.3 °C -2.7 °C 1027.3 hPa North 3.2 km/h 4.8 km/h 90% 0 mm
07:48 -1.4 °C -2.8 °C 1027.3 hPa North 3.2 km/h 4.8 km/h 90% 0 mm
07:53 -1.5 °C -2.8 °C 1027.3 hPa North 1.6 km/h 1.6 km/h 91% 0 mm
07:58 -1.6 °C -2.8 °C 1027.3 hPa North 1.6 km/h 3.2 km/h 91% 0 mm
08:03 -1.6 °C -2.8 °C 1027.7 hPa North 1.6 km/h 1.6 km/h 91% 0 mm
08:08 -1.5 °C -2.8 °C 1027.7 hPa North 3.2 km/h 3.2 km/h 91% 0 mm
08:14 -1.3 °C -2.4 °C 1027.7 hPa North 1.6 km/h 4.8 km/h 92% 0 mm
08:19 -1.2 °C -2.5 °C 1027.7 hPa North 3.2 km/h 6.4 km/h 91% 0 mm
08:24 -1.1 °C -2.4 °C 1027.7 hPa North 3.2 km/h 4.8 km/h 91% 0 mm
08:29 -0.9 °C -2.2 °C 1027.7 hPa North 3.2 km/h 4.8 km/h 91% 0 mm
08:34 -0.8 °C -2.1 °C 1027.7 hPa NNW 4.8 km/h 8 km/h 91% 0 mm
08:39 -0.7 °C -2.1 °C 1027.7 hPa NNE 6.4 km/h 8 km/h 90% 0 mm
08:44 -0.5 °C -1.9 °C 1027.7 hPa NNE 4.8 km/h 9.7 km/h 90% 0 mm
08:49 -0.3 °C -1.8 °C 1027.7 hPa North 6.4 km/h 11.3 km/h 90% 0 mm
08:54 -0.2 °C -1.6 °C 1027.7 hPa North 6.4 km/h 9.7 km/h 90% 0 mm
08:59 0.1 °C -1.6 °C 1027.7 hPa North 4.8 km/h 9.7 km/h 89% 0 mm
09:04 0.3 °C -1.3 °C 1027.7 hPa NE 4.8 km/h 6.4 km/h 89% 0 mm
09:09 0.5 °C -1.3 °C 1027.7 hPa North 8 km/h 9.7 km/h 88% 0 mm
09:14 0.7 °C -1.1 °C 1027.7 hPa North 9.7 km/h 11.3 km/h 88% 0 mm
09:19 0.8 °C -1.1 °C 1028 hPa North 8 km/h 12.9 km/h 87% 0 mm
09:24 0.9 °C -1.1 °C 1028 hPa NNE 9.7 km/h 14.5 km/h 86% 0 mm
09:29 1.1 °C -1.2 °C 1027.7 hPa NNE 17.7 km/h 17.7 km/h 85% 0 mm
09:34 1.2 °C -1 °C 1028 hPa North 12.9 km/h 14.5 km/h 85% 0 mm
09:39 1.3 °C -0.9 °C 1027.7 hPa North 12.9 km/h 17.7 km/h 85% 0 mm
09:44 1.4 °C -0.8 °C 1027.7 hPa NNE 8 km/h 14.5 km/h 85% 0 mm
09:49 1.6 °C -1 °C 1027.7 hPa North 8 km/h 16.1 km/h 83% 0 mm
09:54 1.8 °C -0.6 °C 1027.7 hPa North 9.7 km/h 14.5 km/h 84% 0 mm
09:59 2 °C -0.6 °C 1027.7 hPa North 9.7 km/h 12.9 km/h 83% 0 mm
10:04 2.1 °C -0.6 °C 1027.7 hPa North 11.3 km/h 14.5 km/h 82% 0 mm
10:09 2.2 °C -0.9 °C 1027.7 hPa NE 11.3 km/h 16.1 km/h 80% 0 mm
10:14 2.2 °C -1.1 °C 1027.7 hPa NE 12.9 km/h 17.7 km/h 79% 0 mm
10:19 2.4 °C -1.1 °C 1027.7 hPa NNE 4.8 km/h 12.9 km/h 78% 0 mm
10:24 2.7 °C -0.6 °C 1027.7 hPa NE 8 km/h 12.9 km/h 79% 0 mm
10:29 2.5 °C -1.5 °C 1027.7 hPa NNE 9.7 km/h 16.1 km/h 75% 0 mm
10:34 2.5 °C -1.8 °C 1028 hPa NNE 12.9 km/h 17.7 km/h 73% 0 mm
10:39 2.9 °C -1.1 °C 1027.7 hPa NE 6.4 km/h 17.7 km/h 75% 0 mm
10:44 3.1 °C -0.9 °C 1027.7 hPa NE 4.8 km/h 11.3 km/h 75% 0 mm
10:49 2.9 °C -1.6 °C 1027.7 hPa NE 6.4 km/h 12.9 km/h 72% 0 mm
10:54 3.4 °C -0.8 °C 1027.7 hPa NE 9.7 km/h 20.9 km/h 74% 0 mm
10:59 3.5 °C -1.4 °C 1027.7 hPa NNE 9.7 km/h 17.7 km/h 70% 0 mm
11:04 3.7 °C -1.4 °C 1027.7 hPa NE 4.8 km/h 14.5 km/h 69% 0 mm
11:09 3.4 °C -1.7 °C 1027.7 hPa ENE 9.7 km/h 17.7 km/h 69% 0 mm
11:14 3.3 °C -1.4 °C 1027.7 hPa NNW 8 km/h 11.3 km/h 71% 0 mm
11:19 3.3 °C -1.7 °C 1027.7 hPa NNE 11.3 km/h 11.3 km/h 70% 0 mm
11:24 3.1 °C -1.8 °C 1027.7 hPa NE 4.8 km/h 11.3 km/h 70% 0 mm
11:30 3.3 °C -1.7 °C 1028 hPa North 4.8 km/h 9.7 km/h 70% 0 mm
11:35 3.5 °C -1.4 °C 1027.7 hPa NE 8 km/h 11.3 km/h 70% 0 mm
11:40 3.3 °C -1.8 °C 1027.7 hPa NNE 6.4 km/h 12.9 km/h 69% 0 mm
11:45 3.4 °C -1.6 °C 1027.7 hPa North 4.8 km/h 6.4 km/h 70% 0 mm
11:50 3.7 °C -1.1 °C 1027.7 hPa NE 8 km/h 9.7 km/h 71% 0 mm
11:55 3.8 °C -1.2 °C 1027.3 hPa NE 6.4 km/h 14.5 km/h 70% 0 mm
12:00 3.8 °C -1.4 °C 1027.3 hPa North 6.4 km/h 9.7 km/h 69% 0 mm
12:05 3.8 °C -1.2 °C 1027.3 hPa North 6.4 km/h 14.5 km/h 70% 0 mm
12:10 3.8 °C -1.1 °C 1027.3 hPa NE 9.7 km/h 11.3 km/h 70% 0 mm
12:15 3.7 °C -1.4 °C 1027 hPa NNE 6.4 km/h 8 km/h 69% 0 mm
12:20 3.8 °C -1.8 °C 1027 hPa SW 1.6 km/h 4.8 km/h 67% 0 mm
12:25 4.4 °C -1.2 °C 1027 hPa NE 3.2 km/h 3.2 km/h 67% 0 mm
12:30 4.3 °C -1.5 °C 1027 hPa NW 4.8 km/h 9.7 km/h 66% 0 mm
12:35 4.3 °C -1.3 °C 1027 hPa NW 6.4 km/h 6.4 km/h 67% 0 mm
12:40 4.3 °C -1.4 °C 1027 hPa NNE 6.4 km/h 9.7 km/h 66% 0 mm
12:45 4.2 °C -1.6 °C 1027 hPa NE 8 km/h 12.9 km/h 66% 0 mm
12:46 4.1 °C -1.4 °C 1027 hPa NE 3.2 km/h 12.9 km/h 67% 0 mm
12:51 4.2 °C -1.3 °C 1026.6 hPa NE 4.8 km/h 12.9 km/h 67% 0 mm
12:56 4.2 °C -1.4 °C 1026.6 hPa NNW 4.8 km/h 11.3 km/h 67% 0 mm
13:01 4.2 °C -1.4 °C 1026.3 hPa NE 4.8 km/h 11.3 km/h 67% 0 mm
13:06 4.1 °C -1.9 °C 1026.3 hPa NNW 4.8 km/h 9.7 km/h 65% 0 mm
13:11 4.4 °C -1.2 °C 1026 hPa ENE 3.2 km/h 4.8 km/h 67% 0 mm
13:16 4.7 °C -0.9 °C 1026 hPa ENE 6.4 km/h 9.7 km/h 67% 0 mm
13:21 4.7 °C -1.6 °C 1026 hPa East 6.4 km/h 11.3 km/h 64% 0 mm
13:26 4.8 °C -1.2 °C 1026 hPa East 6.4 km/h 12.9 km/h 65% 0 mm
13:31 4.8 °C -1.2 °C 1026 hPa NNE 4.8 km/h 6.4 km/h 65% 0 mm
13:36 4.8 °C -1.2 °C 1025.6 hPa ESE 6.4 km/h 9.7 km/h 65% 0 mm
13:41 4.8 °C -1.2 °C 1025.6 hPa East 6.4 km/h 8 km/h 65% 0 mm
13:46 4.7 °C -1.1 °C 1025.6 hPa NNE 6.4 km/h 8 km/h 66% 0 mm
13:51 4.6 °C -1 °C 1025.6 hPa NNW 4.8 km/h 12.9 km/h 67% 0 mm
13:56 4.6 °C -1.2 °C 1025.6 hPa NNW 4.8 km/h 11.3 km/h 66% 0 mm
14:01 4.6 °C -1 °C 1025.3 hPa NNW 4.8 km/h 8 km/h 67% 0 mm
14:06 4.7 °C -1.1 °C 1025.3 hPa NE 6.4 km/h 12.9 km/h 66% 0 mm
14:11 4.7 °C -0.9 °C 1025.3 hPa ENE 9.7 km/h 9.7 km/h 67% 0 mm
14:16 4.6 °C -1.1 °C 1024.9 hPa NE 8 km/h 9.7 km/h 67% 0 mm
14:21 4.6 °C -1.1 °C 1024.9 hPa ENE 6.4 km/h 9.7 km/h 67% 0 mm
14:26 4.7 °C -1.1 °C 1024.9 hPa NE 3.2 km/h 9.7 km/h 66% 0 mm
14:31 4.9 °C -0.4 °C 1024.9 hPa ESE 3.2 km/h 8 km/h 68% 0 mm
14:36 5.1 °C -1 °C 1024.9 hPa NNE 4.8 km/h 8 km/h 65% 0 mm
14:42 5.3 °C -0.8 °C 1024.9 hPa Calm   1.6 km/h 65% 0 mm
14:47 5.6 °C -0.9 °C 1024.9 hPa NNW 1.6 km/h 4.8 km/h 63% 0 mm
14:52 5.8 °C -0.9 °C 1024.6 hPa NE 6.4 km/h 8 km/h 62% 0 mm
14:57 5.6 °C -1.2 °C 1024.6 hPa NW 3.2 km/h 4.8 km/h 62% 0 mm
15:02 5.7 °C -0.8 °C 1024.6 hPa ENE 6.4 km/h 12.9 km/h 63% 0 mm
15:07 5.6 °C -0.7 °C 1024.6 hPa NNW 4.8 km/h 9.7 km/h 64% 0 mm
15:12 5.3 °C -0.7 °C 1024.6 hPa North 4.8 km/h 9.7 km/h 65% 0 mm
15:17 5.3 °C -1 °C 1024.6 hPa ESE 1.6 km/h 4.8 km/h 64% 0 mm
15:22 5.3 °C -0.9 °C 1024.6 hPa North 6.4 km/h 6.4 km/h 64% 0 mm
15:27 5.2 °C -1.2 °C 1024.6 hPa NNW 1.6 km/h 8 km/h 63% 0 mm
15:32 5.3 °C -0.9 °C 1024.6 hPa NE 3.2 km/h 6.4 km/h 64% 0 mm
15:37 5.3 °C -0.9 °C 1024.3 hPa ENE 1.6 km/h 12.9 km/h 64% 0 mm
15:42 5.4 °C -0.7 °C 1024.3 hPa NE 6.4 km/h 14.5 km/h 65% 0 mm
15:47 5.3 °C -1 °C 1024.3 hPa NE 4.8 km/h 9.7 km/h 64% 0 mm
15:52 5.2 °C -0.7 °C 1024.6 hPa NNE 6.4 km/h 12.9 km/h 66% 0 mm
15:57 5.1 °C -1 °C 1024.3 hPa NNE 6.4 km/h 14.5 km/h 65% 0 mm
16:02 5 °C -0.8 °C 1024.3 hPa NE 11.3 km/h 11.3 km/h 66% 0 mm
16:07 5 °C -1.1 °C 1024.3 hPa ENE 4.8 km/h 9.7 km/h 65% 0 mm
16:12 5.2 °C -0.9 °C 1024.3 hPa NNE 9.7 km/h 11.3 km/h 65% 0 mm
16:17 5.3 °C -0.7 °C 1024.3 hPa NNE 3.2 km/h 12.9 km/h 65% 0 mm
16:22 5.3 °C -1.1 °C 1024.3 hPa ENE 4.8 km/h 12.9 km/h 63% 0 mm
16:27 5.4 °C -0.9 °C 1024.3 hPa ENE 1.6 km/h 6.4 km/h 64% 0 mm
16:32 5.6 °C -0.5 °C 1024.3 hPa NE 8 km/h 9.7 km/h 65% 0 mm
16:37 5.6 °C -0.4 °C 1024.3 hPa NW 3.2 km/h 8 km/h 65% 0 mm
16:42 5.6 °C -0.9 °C 1024.3 hPa NNE 8 km/h 8 km/h 63% 0 mm
16:47 5.6 °C -0.9 °C 1024.3 hPa NNE 3.2 km/h 4.8 km/h 63% 0 mm
16:52 5.5 °C -0.8 °C 1024.3 hPa NNE 6.4 km/h 8 km/h 64% 0 mm
16:57 5.5 °C -1 °C 1024.3 hPa NNE 3.2 km/h 9.7 km/h 63% 0 mm
17:02 5.5 °C -1 °C 1024.3 hPa NNE 9.7 km/h 11.3 km/h 63% 0 mm
17:07 5.5 °C -0.8 °C 1024.3 hPa NE 3.2 km/h 11.3 km/h 64% 0 mm
17:12 5.3 °C -0.9 °C 1024.3 hPa NNE 11.3 km/h 12.9 km/h 64% 0 mm
17:17 5.2 °C -1.1 °C 1024.3 hPa NE 4.8 km/h 11.3 km/h 64% 0 mm
17:22 5.3 °C -0.8 °C 1024.3 hPa NE 3.2 km/h 8 km/h 65% 0 mm
17:27 5.2 °C -1.1 °C 1024.3 hPa NNE 4.8 km/h 6.4 km/h 64% 0 mm
17:32 5.1 °C -1.1 °C 1024.3 hPa NNE 8 km/h 11.3 km/h 64% 0 mm
17:37 5.1 °C -1 °C 1024.3 hPa NE 8 km/h 8 km/h 65% 0 mm
17:43 4.9 °C -1.3 °C 1024.3 hPa NNE 3.2 km/h 6.4 km/h 64% 0 mm
17:48 4.9 °C -1.1 °C 1024.3 hPa NNE 3.2 km/h 6.4 km/h 65% 0 mm
17:53 4.9 °C -1.3 °C 1024.3 hPa NE 1.6 km/h 6.4 km/h 64% 0 mm
17:58 4.8 °C -1.4 °C 1023.9 hPa ENE 3.2 km/h 4.8 km/h 64% 0 mm
18:03 4.7 °C -1.3 °C 1023.9 hPa NE 6.4 km/h 8 km/h 65% 0 mm
18:08 4.5 °C -1.3 °C 1023.9 hPa NE 6.4 km/h 9.7 km/h 66% 0 mm
18:13 4.4 °C -1.2 °C 1023.9 hPa NE 4.8 km/h 6.4 km/h 67% 0 mm
18:18 4.2 °C -1.3 °C 1023.9 hPa ENE 4.8 km/h 4.8 km/h 67% 0 mm
18:23 4.1 °C -1.4 °C 1023.9 hPa ENE 3.2 km/h 6.4 km/h 67% 0 mm
18:28 3.9 °C -1.4 °C 1023.9 hPa NE 3.2 km/h 4.8 km/h 68% 0 mm
18:33 3.7 °C -1.4 °C 1023.9 hPa NE 3.2 km/h 6.4 km/h 69% 0 mm
18:38 3.6 °C -1.6 °C 1023.9 hPa NE 3.2 km/h 4.8 km/h 69% 0 mm
18:43 3.4 °C -1.8 °C 1023.9 hPa NE 3.2 km/h 4.8 km/h 69% 0 mm
18:48 3.3 °C -1.7 °C 1023.9 hPa NE 1.6 km/h 3.2 km/h 70% 0 mm
18:53 3.2 °C -1.8 °C 1023.9 hPa Calm   1.6 km/h 70% 0 mm
18:58 3.1 °C -1.7 °C 1023.9 hPa Calm   1.6 km/h 71% 0 mm
19:03 2.9 °C -1.8 °C 1023.9 hPa East 1.6 km/h 1.6 km/h 71% 0 mm
19:08 2.9 °C -1.8 °C 1024.3 hPa Calm   1.6 km/h 71% 0 mm
19:13 2.8 °C -1.9 °C 1024.3 hPa Calm   1.6 km/h 71% 0 mm
19:18 2.8 °C -1.9 °C 1024.3 hPa East 1.6 km/h 1.6 km/h 71% 0 mm
19:23 2.8 °C -1.9 °C 1024.3 hPa East 1.6 km/h 1.6 km/h 71% 0 mm
19:28 2.7 °C -1.8 °C 1024.3 hPa ENE 1.6 km/h 3.2 km/h 72% 0 mm
19:33 2.6 °C -1.9 °C 1024.3 hPa East 1.6 km/h 3.2 km/h 72% 0 mm
19:38 2.6 °C -1.8 °C 1024.3 hPa East 1.6 km/h 4.8 km/h 73% 0 mm
19:43 2.3 °C -1.8 °C 1024.3 hPa ESE 1.6 km/h 1.6 km/h 74% 0 mm
19:48 2.2 °C -1.8 °C 1024.3 hPa East 1.6 km/h 3.2 km/h 75% 0 mm
19:53 2.1 °C -1.7 °C 1023.9 hPa East 1.6 km/h 3.2 km/h 76% 0 mm
19:58 2.1 °C -1.7 °C 1024.3 hPa East 1.6 km/h 1.6 km/h 76% 0 mm
20:03 2.1 °C -1.7 °C 1024.3 hPa East 1.6 km/h 3.2 km/h 76% 0 mm
20:09 2 °C -1.8 °C 1024.3 hPa ESE 1.6 km/h 3.2 km/h 76% 0 mm
20:14 2 °C -1.6 °C 1024.3 hPa East 3.2 km/h 3.2 km/h 77% 0 mm
20:19 1.9 °C -1.7 °C 1023.9 hPa East 3.2 km/h 3.2 km/h 77% 0 mm
20:24 1.9 °C -1.7 °C 1023.9 hPa ESE 4.8 km/h 4.8 km/h 77% 0 mm
20:29 1.8 °C -1.8 °C 1023.9 hPa ESE 4.8 km/h 6.4 km/h 77% 0 mm
20:34 1.8 °C -1.8 °C 1023.9 hPa ESE 4.8 km/h 4.8 km/h 77% 0 mm
20:39 1.7 °C -1.9 °C 1023.9 hPa East 1.6 km/h 3.2 km/h 77% 0 mm
20:44 1.6 °C -1.9 °C 1023.9 hPa ESE 1.6 km/h 3.2 km/h 78% 0 mm
20:49 1.4 °C -1.9 °C 1023.9 hPa ESE 3.2 km/h 3.2 km/h 78% 0 mm
20:54 1.3 °C -1.9 °C 1023.9 hPa ESE 3.2 km/h 4.8 km/h 79% 0 mm
20:59 1.2 °C -1.9 °C 1023.6 hPa SE 3.2 km/h 4.8 km/h 80% 0 mm
21:04 1.2 °C -1.9 °C 1023.9 hPa ESE 4.8 km/h 4.8 km/h 80% 0 mm
21:09 1.2 °C -1.8 °C 1023.9 hPa ESE 4.8 km/h 4.8 km/h 80% 0 mm
21:14 1.2 °C -1.8 °C 1023.9 hPa ESE 3.2 km/h 3.2 km/h 80% 0 mm
21:19 1.1 °C -2 °C 1023.9 hPa ESE 1.6 km/h 1.6 km/h 80% 0 mm
21:24 1 °C -2.1 °C 1023.9 hPa Calm     80% 0 mm
21:29 0.8 °C -2.2 °C 1023.9 hPa Calm     80% 0 mm
21:34 0.5 °C -2.4 °C 1023.9 hPa Calm     81% 0 mm
21:39 0.2 °C -2.5 °C 1023.9 hPa Calm     82% 0 mm
21:44 -0.2 °C -2.6 °C 1023.9 hPa WNW 1.6 km/h 8 km/h 84% 0 mm
21:49 -0.5 °C -2.6 °C 1023.9 hPa WNW 9.7 km/h 9.7 km/h 86% 0 mm
21:54 -0.2 °C -2.4 °C 1023.9 hPa NW 3.2 km/h 4.8 km/h 85% 0 mm
21:59 -0.1 °C -2.2 °C 1023.9 hPa NNW 1.6 km/h 1.6 km/h 86% 0 mm
22:04 0 °C -2.2 °C 1023.9 hPa NNW 1.6 km/h 4.8 km/h 85% 0 mm
22:09 0.1 °C -2.1 °C 1023.9 hPa NNW 1.6 km/h 1.6 km/h 85% 0 mm
22:14 0.2 °C -2.2 °C 1023.9 hPa Calm   3.2 km/h 84% 0 mm
22:19 0.2 °C -2.2 °C 1023.9 hPa Calm   1.6 km/h 84% 0 mm
22:24 0.3 °C -2.1 °C 1023.9 hPa North 1.6 km/h 3.2 km/h 84% 0 mm
22:29 0.4 °C -2 °C 1023.9 hPa Calm   1.6 km/h 84% 0 mm
22:34 0.4 °C -2.2 °C 1023.9 hPa NNW 1.6 km/h 1.6 km/h 83% 0 mm
22:39 0.3 °C -2.2 °C 1023.9 hPa North 1.6 km/h 3.2 km/h 83% 0 mm
22:44 0.2 °C -2.4 °C 1023.9 hPa North 1.6 km/h 3.2 km/h 83% 0 mm
22:49 0.1 °C -2.3 °C 1023.9 hPa NNW 4.8 km/h 4.8 km/h 84% 0 mm
22:54 0.1 °C -2.3 °C 1023.9 hPa North 6.4 km/h 6.4 km/h 84% 0 mm
22:59 0 °C -2.6 °C 1023.9 hPa NNW 3.2 km/h 9.7 km/h 83% 0 mm
23:04 -0.1 °C -2.6 °C 1023.9 hPa North 4.8 km/h 8 km/h 83% 0 mm
23:09 0 °C -2.6 °C 1023.9 hPa North 3.2 km/h 4.8 km/h 83% 0 mm
23:15 -0.1 °C -2.6 °C 1023.9 hPa NNE 1.6 km/h 4.8 km/h 83% 0 mm
23:19 -0.1 °C -2.7 °C 1023.9 hPa North 3.2 km/h 6.4 km/h 83% 0 mm
23:24 -0.2 °C -2.7 °C 1023.9 hPa North 4.8 km/h 4.8 km/h 83% 0 mm
23:29 -0.2 °C -2.8 °C 1023.6 hPa North 4.8 km/h 4.8 km/h 83% 0 mm
23:34 -0.2 °C -2.8 °C 1023.6 hPa North 4.8 km/h 8 km/h 83% 0 mm
23:40 -0.2 °C -2.9 °C 1023.6 hPa NNE 8 km/h 8 km/h 82% 0 mm
23:45 -0.2 °C -2.9 °C 1023.6 hPa NNE 6.4 km/h 6.4 km/h 82% 0 mm
23:50 -0.2 °C -2.9 °C 1023.6 hPa NNE 8 km/h 8 km/h 82% 0 mm
23:55 -0.2 °C -2.9 °C 1023.6 hPa NNE 4.8 km/h 6.4 km/h 82% 0 mm
Compliments of Weather Underground